Dades meteomassalio
Diari Summary for Octubre 20, 2017 Units:  English    Metric   Both
« Previous Day
Next Day »
Diari Semanal Mensual Anual Personalitzat
  Maxima: Minima: Mijana:
Temperatura: TemperatureC °F 7.2 °F 15.1 °F
Rosada: DewpointC °F 3.8 °F 8 °F
Humitat: Humidity % 45 % 64 %
Velocitat del vent: WindSpeedKMH mph 0.0 mph 5.6 mph
Racha vent: WindSpeedGustKMH mph - -
Vent:- - WSW
Pressio: PressurehPa in 1015.8 in -
Pluja: 0.0 in    
Historical Graphs
 
 
Tabular Data for Octubre 20, 2017
Time Temperature Dew Point Pressure Wind Wind Speed Wind Gust Humidity Rainfall Rate (Hourly) solar Conditions
TemperatureC °F DewpointC °F PressurehPa in Calm     Humidity % HourlyPrecipMM in SolarRadiationWatts/m^2 W/m2 Conditions
00:00 15.6 °F 9.7 °F 1015.8 in WSW 24.1 mph 24.1 mph 68 % 0.0 in 0.0 W/m2 CLR
00:05 15.6 °F 9.7 °F 1015.8 in SW 25.9 mph 25.9 mph 68 % 0.0 in 0.0 W/m2 CLR
00:10 15.6 °F 9.7 °F 1015.8 in SW 24.1 mph 24.1 mph 68 % 0.0 in 0.0 W/m2 CLR
00:15 15.6 °F 9.7 °F 1015.8 in SW 29.0 mph 29.0 mph 68 % 0.0 in 0.0 W/m2 CLR
00:20 15.6 °F 9.7 °F 1015.8 in WSW 24.1 mph 24.1 mph 68 % 0.0 in 0.0 W/m2 CLR
00:25 15.6 °F 9.7 °F 1015.8 in WSW 25.9 mph 25.9 mph 68 % 0.0 in 0.0 W/m2 CLR
00:30 15.6 °F 9.7 °F 1016.1 in WSW 25.9 mph 25.9 mph 68 % 0.0 in 0.0 W/m2 CLR
00:35 15.6 °F 9.7 °F 1016.1 in WSW 25.7 mph 25.7 mph 68 % 0.0 in 0.0 W/m2 CLR
00:41 15.6 °F 9.9 °F 1016.1 in WSW 22.2 mph 22.2 mph 69 % 0.0 in 0.0 W/m2 CLR
00:46 15.6 °F 9.9 °F 1016.1 in WSW 29.6 mph 29.6 mph 69 % 0.0 in 0.0 W/m2 CLR
00:51 15.6 °F 9.9 °F 1016.1 in SW 27.8 mph 27.8 mph 69 % 0.0 in 0.0 W/m2 CLR
00:56 15.6 °F 10.1 °F 1016.5 in WSW 25.9 mph 25.9 mph 70 % 0.0 in 0.0 W/m2 CLR
01:01 15.6 °F 10.1 °F 1016.5 in WSW 29.6 mph 29.6 mph 70 % 0.0 in 0.0 W/m2 CLR
01:06 15.6 °F 10.1 °F 1016.5 in WSW 24.1 mph 24.1 mph 70 % 0.0 in 0.0 W/m2 CLR
01:11 15.6 °F 9.9 °F 1016.8 in WSW 27.8 mph 27.8 mph 69 % 0.0 in 0.0 W/m2 CLR
01:16 15.6 °F 9.9 °F 1016.8 in WSW 27.4 mph 27.4 mph 69 % 0.0 in 0.0 W/m2 CLR
01:21 15.6 °F 10.1 °F 1016.8 in SW 22.2 mph 22.2 mph 70 % 0.0 in 0.0 W/m2 CLR
01:26 15.6 °F 9.9 °F 1016.8 in SW 22.5 mph 22.5 mph 69 % 0.0 in 0.0 W/m2 CLR
01:31 15.6 °F 9.9 °F 1016.8 in SW 18.5 mph 18.5 mph 69 % 0.0 in 0.0 W/m2 CLR
01:36 15.6 °F 9.9 °F 1016.8 in SSW 27.8 mph 27.8 mph 69 % 0.0 in 0.0 W/m2 CLR
01:41 15.6 °F 9.9 °F 1016.8 in SW 27.4 mph 27.4 mph 69 % 0.0 in 0.0 W/m2 CLR
01:46 15.6 °F 9.9 °F 1016.8 in SW 18.5 mph 18.5 mph 69 % 0.0 in 0.0 W/m2 CLR
01:51 15.6 °F 9.9 °F 1016.8 in SW 16.7 mph 16.7 mph 69 % 0.0 in 0.0 W/m2 CLR
01:56 15.6 °F 9.9 °F 1016.8 in SW 18.5 mph   69 % 0.0 in 0.0 W/m2 CLR
02:01 15.0 °F 9.3 °F 1016.8 in SSW 14.8 mph 14.8 mph 69 % 0.0 in 0.0 W/m2 CLR
02:06 15.0 °F 9.3 °F 1016.8 in Calm     69 % 0.0 in 0.0 W/m2 CLR
02:11 15.0 °F 9.3 °F 1017.2 in Calm     69 % 0.0 in 0.0 W/m2 CLR
02:16 15.0 °F 9.3 °F 1016.8 in Calm     69 % 0.0 in 0.0 W/m2 CLR
02:21 14.4 °F 8.8 °F 1017.2 in Calm     69 % 0.0 in 0.0 W/m2 CLR
02:26 14.4 °F 8.8 °F 1017.2 in Calm     69 % 0.0 in 0.0 W/m2 CLR
02:31 13.9 °F 8.3 °F 1017.2 in Calm     69 % 0.0 in 0.0 W/m2 CLR
02:36 13.9 °F 8.3 °F 1017.2 in SW 9.3 mph   69 % 0.0 in 0.0 W/m2 CLR
02:41 13.9 °F 8.1 °F 1017.2 in SW 9.3 mph   68 % 0.0 in 0.0 W/m2 CLR
02:46 13.9 °F 8.1 °F 1017.2 in SW 11.1 mph 11.1 mph 68 % 0.0 in 0.0 W/m2 CLR
02:51 13.9 °F 8.1 °F 1017.2 in WSW 19.3 mph 19.3 mph 68 % 0.0 in 0.0 W/m2 CLR
02:56 14.4 °F 8.4 °F 1017.2 in SSW 18.5 mph 18.5 mph 67 % 0.0 in 0.0 W/m2 CLR
03:01 14.4 °F 8.4 °F 1017.2 in SSW 18.5 mph 18.5 mph 67 % 0.0 in 0.0 W/m2 CLR
03:06 15.0 °F 8.9 °F 1017.2 in SW 18.5 mph 18.5 mph 67 % 0.0 in 0.0 W/m2 CLR
03:11 15.0 °F 8.9 °F 1017.5 in SSW 16.7 mph 16.7 mph 67 % 0.0 in 0.0 W/m2 CLR
03:16 14.4 °F 8.4 °F 1017.5 in SSW 14.5 mph 14.5 mph 67 % 0.0 in 0.0 W/m2 CLR
03:21 14.4 °F 8.4 °F 1017.5 in SW 24.1 mph 24.1 mph 67 % 0.0 in 0.0 W/m2 CLR
03:26 14.4 °F 8.4 °F 1017.5 in SSW 18.5 mph 18.5 mph 67 % 0.0 in 0.0 W/m2 CLR
03:31 14.4 °F 8.4 °F 1017.5 in SW 17.7 mph 17.7 mph 67 % 0.0 in 0.0 W/m2 CLR
03:36 14.4 °F 8.4 °F 1017.5 in SW 16.7 mph 16.7 mph 67 % 0.0 in 0.0 W/m2 CLR
03:41 14.4 °F 8.2 °F 1017.5 in SW 17.7 mph 17.7 mph 66 % 0.0 in 0.0 W/m2 CLR
03:46 14.4 °F 8.2 °F 1017.5 in SSW 22.2 mph 22.2 mph 66 % 0.0 in 0.0 W/m2 CLR
03:51 14.4 °F 8.2 °F 1017.5 in SW 18.5 mph 18.5 mph 66 % 0.0 in 0.0 W/m2 CLR
03:56 14.4 °F 8.2 °F 1017.5 in SW 14.8 mph 14.8 mph 66 % 0.0 in 0.0 W/m2 CLR
04:01 14.4 °F 8.2 °F 1017.5 in SSW 14.5 mph 14.5 mph 66 % 0.0 in 0.0 W/m2 CLR
04:06 14.4 °F 8.2 °F 1017.5 in SSW 18.5 mph 18.5 mph 66 % 0.0 in 0.0 W/m2 CLR
04:11 13.9 °F 7.8 °F 1017.5 in SW 16.1 mph 16.1 mph 67 % 0.0 in 0.0 W/m2 CLR
04:16 13.9 °F 7.8 °F 1017.5 in SW 22.5 mph 22.5 mph 67 % 0.0 in 0.0 W/m2 CLR
04:21 13.9 °F 7.8 °F 1017.5 in SSW 16.7 mph 16.7 mph 67 % 0.0 in 0.0 W/m2 CLR
04:26 13.9 °F 7.8 °F 1017.5 in Calm   0.6 mph 67 % 0.0 in 0.0 W/m2 CLR
04:32 13.3 °F 7.6 °F 1017.5 in SW 1.9 mph   68 % 0.0 in 0.0 W/m2 CLR
04:37 13.9 °F 7.8 °F 1017.8 in Calm     67 % 0.0 in 0.0 W/m2 CLR
04:42 13.3 °F 7.6 °F 1017.8 in Calm     68 % 0.0 in 0.0 W/m2 CLR
04:47 12.8 °F 7.0 °F 1017.8 in Calm     68 % 0.0 in 0.0 W/m2 CLR
04:52 12.2 °F 6.5 °F 1017.8 in Calm     68 % 0.0 in 0.0 W/m2 CLR
04:57 12.2 °F 6.7 °F 1017.8 in Calm     69 % 0.0 in 0.0 W/m2 CLR
05:02 12.2 °F 6.7 °F 1017.8 in Calm     69 % 0.0 in 0.0 W/m2 CLR
05:07 12.8 °F 7.2 °F 1017.8 in Calm     69 % 0.0 in 0.0 W/m2 CLR
05:12 12.8 °F 7.2 °F 1017.8 in Calm     69 % 0.0 in 0.0 W/m2 CLR
05:17 12.2 °F 6.9 °F 1017.8 in Calm     70 % 0.0 in 0.0 W/m2 CLR
05:21 12.2 °F 6.7 °F 1017.8 in Calm     69 % 0.0 in 0.0 W/m2 CLR
05:25 11.7 °F 6.4 °F 1017.8 in Calm     70 % 0.0 in 0.0 W/m2 CLR
05:30 11.7 °F 6.4 °F 1018.2 in Calm     70 % 0.0 in 0.0 W/m2 CLR
05:31 11.7 °F 6.4 °F 1018.2 in Calm     70 % 0.0 in 0.0 W/m2 CLR
05:36 11.7 °F 6.4 °F 1018.2 in Calm     70 % 0.0 in 0.0 W/m2 CLR
05:41 11.1 °F 5.8 °F 1018.2 in Calm     70 % 0.0 in 0.0 W/m2 CLR
05:46 11.1 °F 6.1 °F 1018.2 in Calm     71 % 0.0 in 0.0 W/m2 CLR
05:51 11.1 °F 6.1 °F 1018.2 in Calm     71 % 0.0 in 0.0 W/m2 CLR
05:56 11.1 °F 6.1 °F 1018.2 in Calm     71 % 0.0 in 0.0 W/m2 CLR
06:01 10.6 °F 5.5 °F 1018.2 in Calm     71 % 0.0 in 0.0 W/m2 CLR
06:06 10.6 °F 5.5 °F 1018.2 in Calm     71 % 0.0 in 0.0 W/m2 CLR
06:11 10.6 °F 5.5 °F 1018.2 in Calm     71 % 0.0 in 0.0 W/m2 CLR
06:16 10.6 °F 5.5 °F 1018.2 in Calm     71 % 0.0 in 0.0 W/m2 CLR
06:21 10.6 °F 5.5 °F 1018.5 in Calm     71 % 0.0 in 0.0 W/m2 CLR
06:26 10.6 °F 5.7 °F 1018.2 in Calm     72 % 0.0 in 0.0 W/m2 CLR
06:31 10.6 °F 5.7 °F 1018.5 in Calm     72 % 0.0 in 0.0 W/m2 CLR
06:36 10.0 °F 5.2 °F 1018.5 in Calm     72 % 0.0 in 0.0 W/m2 CLR
06:41 10.0 °F 5.4 °F 1018.5 in Calm     73 % 0.0 in 0.0 W/m2 CLR
06:46 10.0 °F 5.4 °F 1018.5 in Calm     73 % 0.0 in 0.0 W/m2 CLR
06:51 9.4 °F 4.8 °F 1018.5 in Calm     73 % 0.0 in 0.0 W/m2 CLR
06:56 9.4 °F 4.8 °F 1018.5 in Calm     73 % 0.0 in 0.0 W/m2 CLR
07:01 9.4 °F 5.1 °F 1018.5 in Calm     74 % 0.0 in 0.0 W/m2 CLR
07:06 8.9 °F 4.5 °F 1018.8 in Calm     74 % 0.0 in 0.0 W/m2 CLR
07:11 8.9 °F 4.7 °F 1018.5 in Calm     75 % 0.0 in 0.0 W/m2 CLR
07:16 8.9 °F 4.5 °F 1018.8 in Calm     74 % 0.0 in 0.0 W/m2 CLR
07:21 8.3 °F 3.9 °F 1019.2 in Calm     74 % 0.0 in 0.0 W/m2 CLR
07:26 8.3 °F 3.9 °F 1019.2 in Calm     74 % 0.0 in 0.0 W/m2 CLR
07:31 8.3 °F 3.9 °F 1019.2 in Calm     74 % 0.0 in 0.0 W/m2 CLR
07:36 8.3 °F 4.2 °F 1019.2 in Calm     75 % 0.0 in 0.0 W/m2 CLR
07:41 8.3 °F 4.2 °F 1019.2 in Calm     75 % 0.0 in 0.0 W/m2 CLR
07:46 7.8 °F 3.8 °F 1019.2 in Calm     76 % 0.0 in 0.0 W/m2 CLR
07:51 7.8 °F 3.8 °F 1019.5 in Calm     76 % 0.0 in 0.0 W/m2 CLR
07:56 7.8 °F 4.0 °F 1019.5 in Calm     77 % 0.0 in 0.0 W/m2 CLR
08:01 7.8 °F 4.2 °F 1019.5 in Calm     78 % 0.0 in 0.0 W/m2 CLR
08:06 7.8 °F 4.4 °F 1019.9 in Calm     79 % 0.0 in 0.0 W/m2 CLR
08:11 7.8 °F 4.4 °F 1019.9 in Calm     79 % 0.0 in 0.0 W/m2 OVC
08:16 7.2 °F 3.8 °F 1019.5 in Calm     79 % 0.0 in 5.0 W/m2 OVC
08:21 7.2 °F 3.8 °F 1019.5 in Calm     79 % 0.0 in 0.0 W/m2 OVC
08:26 7.2 °F 3.8 °F 1019.9 in Calm     79 % 0.0 in 5.0 W/m2 OVC
08:31 7.2 °F 4.0 °F 1019.9 in Calm     80 % 0.0 in 12.0 W/m2 BKN
08:36 7.2 °F 4.0 °F 1019.9 in Calm     80 % 0.0 in 25.0 W/m2 BKN
08:46 7.8 °F 4.9 °F 1020.2 in Calm     82 % 0.0 in 39.0 W/m2 BKN
08:51 7.8 °F 5.1 °F 1020.2 in Calm     83 % 0.0 in 40.0 W/m2 BKN
08:56 7.8 °F 5.1 °F 1020.5 in Calm     83 % 0.0 in 40.0 W/m2 BKN
09:01 8.3 °F 5.6 °F 1020.5 in Calm     83 % 0.0 in 53.0 W/m2 SCT
09:06 8.3 °F 5.6 °F 1020.9 in Calm     83 % 0.0 in 93.0 W/m2 CLR
09:11 8.9 °F 6.0 °F 1020.9 in Calm     82 % 0.0 in 91.0 W/m2 CLR
09:16 8.9 °F 6.0 °F 1020.9 in Calm     82 % 0.0 in 83.0 W/m2 FEW
09:21 9.4 °F 6.3 °F 1020.9 in Calm     81 % 0.0 in 109.0 W/m2 CLR
09:26 10.0 °F 6.9 °F 1020.9 in Calm     81 % 0.0 in 98.0 W/m2 CLR
09:31 10.6 °F 7.2 °F 1020.9 in Calm     80 % 0.0 in 179.0 W/m2 CLR
09:36 11.7 °F 7.9 °F 1020.9 in Calm     78 % 0.0 in 137.0 W/m2 CLR
09:41 11.7 °F 7.8 °F 1020.9 in Calm     77 % 0.0 in 107.0 W/m2 CLR
09:46 12.2 °F 8.1 °F 1021.2 in Calm     76 % 0.0 in 188.0 W/m2 CLR
09:51 12.2 °F 7.5 °F 1021.2 in Calm     73 % 0.0 in 244.0 W/m2 CLR
09:56 12.8 °F 8.1 °F 1021.2 in Calm     73 % 0.0 in 139.0 W/m2 CLR
10:01 13.3 °F 8.2 °F 1021.6 in Calm     71 % 0.0 in 206.0 W/m2 CLR
10:06 13.3 °F 7.8 °F 1021.6 in Calm     69 % 0.0 in 257.0 W/m2 CLR
10:11 13.3 °F 7.6 °F 1021.6 in Calm     68 % 0.0 in 323.0 W/m2 CLR
10:16 13.9 °F 7.6 °F 1021.6 in Calm     66 % 0.0 in 246.0 W/m2 CLR
10:21 14.4 °F 7.9 °F 1021.6 in Calm     65 % 0.0 in 221.0 W/m2 CLR
10:26 14.4 °F 7.7 °F 1021.6 in Calm     64 % 0.0 in 267.0 W/m2 CLR
10:31 15.0 °F 8.0 °F 1021.6 in Calm     63 % 0.0 in 290.0 W/m2 CLR
10:36 15.6 °F 8.6 °F 1021.6 in Calm     63 % 0.0 in 345.0 W/m2 CLR
10:41 16.1 °F 8.8 °F 1021.6 in Calm     62 % 0.0 in 285.0 W/m2 CLR
10:46 16.1 °F 8.8 °F 1021.6 in Calm     62 % 0.0 in 352.0 W/m2 CLR
10:51 16.1 °F 8.8 °F 1021.9 in Calm     62 % 0.0 in 404.0 W/m2 CLR
10:56 16.1 °F 7.3 °F 1021.6 in Calm     56 % 0.0 in 422.0 W/m2 CLR
10:57 16.7 °F 7.8 °F 1021.6 in Calm     56 % 0.0 in 330.0 W/m2 CLR
11:02 16.7 °F 7.8 °F 1021.6 in Calm     56 % 0.0 in 483.0 W/m2 CLR
11:07 17.2 °F 8.4 °F 1021.9 in Calm     56 % 0.0 in 452.0 W/m2 CLR
11:12 17.2 °F 7.8 °F 1021.9 in Calm     54 % 0.0 in 485.0 W/m2 CLR
11:17 17.2 °F 7.6 °F 1021.9 in Calm     53 % 0.0 in 141.0 W/m2 CLR
11:27 17.8 °F 8.1 °F 1021.9 in SW 5.6 mph   53 % 0.0 in 464.0 W/m2 CLR
11:32 17.8 °F 8.1 °F 1021.9 in WSW 7.4 mph 7.4 mph 53 % 0.0 in 476.0 W/m2 CLR
11:37 18.3 °F 8.3 °F 1021.9 in WSW 9.3 mph 9.3 mph 52 % 0.0 in 480.0 W/m2 CLR
11:42 18.3 °F 8.3 °F 1021.9 in SW 13.0 mph 13.0 mph 52 % 0.0 in 496.0 W/m2 CLR
11:47 18.9 °F 9.1 °F 1021.9 in South 9.7 mph 9.7 mph 53 % 0.0 in 504.0 W/m2 CLR
11:52 18.9 °F 8.5 °F 1021.9 in South 9.3 mph 9.3 mph 51 % 0.0 in 512.0 W/m2 CLR
11:57 18.9 °F 8.8 °F 1021.9 in SSW 5.6 mph 5.6 mph 52 % 0.0 in 524.0 W/m2 CLR
12:02 18.9 °F 8.8 °F 1021.9 in WSW 8.0 mph 8.0 mph 52 % 0.0 in 534.0 W/m2 CLR
12:07 18.9 °F 8.5 °F 1021.9 in West 9.3 mph 9.3 mph 51 % 0.0 in 547.0 W/m2 CLR
12:12 18.9 °F 8.8 °F 1021.9 in Calm     52 % 0.0 in 589.0 W/m2 CLR
12:17 19.4 °F 8.7 °F 1021.9 in SW 5.6 mph   50 % 0.0 in 577.0 W/m2 CLR
12:22 19.4 °F 8.4 °F 1021.9 in SW 13.0 mph 13.0 mph 49 % 0.0 in 580.0 W/m2 CLR
12:27 20.0 °F 9.3 °F 1021.9 in West 14.5 mph 14.5 mph 50 % 0.0 in 582.0 W/m2 CLR
12:32 20.0 °F 8.9 °F 1021.9 in West 9.3 mph 9.3 mph 49 % 0.0 in 585.0 W/m2 CLR
12:37 20.0 °F 9.3 °F 1021.9 in West 16.7 mph 16.7 mph 50 % 0.0 in 585.0 W/m2 CLR
12:43 20.6 °F 9.4 °F 1021.9 in WSW 14.8 mph 14.8 mph 49 % 0.0 in 589.0 W/m2 CLR
12:48 20.6 °F 9.8 °F 1021.9 in SSW 7.4 mph 7.4 mph 50 % 0.0 in 589.0 W/m2 CLR
12:53 20.6 °F 9.2 °F 1021.9 in SSW 14.8 mph 14.8 mph 48 % 0.0 in 591.0 W/m2 CLR
12:58 21.1 °F 10.3 °F 1021.9 in SW 5.6 mph   50 % 0.0 in 596.0 W/m2 CLR
13:03 21.1 °F 10.0 °F 1021.9 in SW 7.4 mph 7.4 mph 49 % 0.0 in 599.0 W/m2 CLR
13:08 21.1 °F 10.0 °F 1021.9 in South 9.3 mph 9.3 mph 49 % 0.0 in 603.0 W/m2 CLR
13:13 21.1 °F 9.7 °F 1021.9 in South 11.1 mph 11.1 mph 48 % 0.0 in 605.0 W/m2 CLR
13:18 21.1 °F 9.7 °F 1021.9 in South 11.1 mph   48 % 0.0 in 608.0 W/m2 CLR
13:23 21.1 °F 9.7 °F 1021.9 in SW 5.6 mph 5.6 mph 48 % 0.0 in 612.0 W/m2 CLR
13:28 21.1 °F 10.0 °F 1021.6 in SW 8.0 mph 8.0 mph 49 % 0.0 in 613.0 W/m2 CLR
13:33 21.1 °F 9.7 °F 1021.6 in WSW 3.7 mph   48 % 0.0 in 617.0 W/m2 CLR
13:38 21.7 °F 10.8 °F 1021.6 in Calm     50 % 0.0 in 622.0 W/m2 CLR
13:43 21.7 °F 10.2 °F 1021.6 in SSW 13.0 mph 13.0 mph 48 % 0.0 in 624.0 W/m2 CLR
13:48 21.7 °F 10.2 °F 1021.6 in Calm     48 % 0.0 in 629.0 W/m2 CLR
13:53 21.7 °F 9.8 °F 1021.6 in WSW 7.4 mph 7.4 mph 47 % 0.0 in 633.0 W/m2 CLR
13:58 21.7 °F 10.5 °F 1021.6 in SW 11.1 mph 11.1 mph 49 % 0.0 in 628.0 W/m2 CLR
14:03 21.1 °F 9.7 °F 1021.6 in WNW 14.8 mph 14.8 mph 48 % 0.0 in 629.0 W/m2 CLR
14:08 21.7 °F 10.8 °F 1021.6 in West 16.7 mph 16.7 mph 50 % 0.0 in 631.0 W/m2 CLR
14:13 21.1 °F 10.0 °F 1021.6 in WSW 11.1 mph 11.1 mph 49 % 0.0 in 615.0 W/m2 CLR
14:18 21.1 °F 10.0 °F 1021.6 in NNW 7.4 mph   49 % 0.0 in 610.0 W/m2 CLR
14:23 21.1 °F 9.7 °F 1021.6 in SW 11.1 mph 11.1 mph 48 % 0.0 in 606.0 W/m2 CLR
14:28 21.7 °F 10.2 °F 1021.6 in WSW 11.1 mph 11.1 mph 48 % 0.0 in 606.0 W/m2 CLR
14:33 22.2 °F 10.7 °F 1021.2 in West 13.0 mph 13.0 mph 48 % 0.0 in 612.0 W/m2 CLR
14:38 22.2 °F 11.0 °F 1021.2 in SW 5.6 mph 5.6 mph 49 % 0.0 in 649.0 W/m2 CLR
14:43 21.7 °F 9.8 °F 1021.2 in WNW 13.0 mph 13.0 mph 47 % 0.0 in 621.0 W/m2 CLR
14:48 21.7 °F 10.2 °F 1021.2 in West 11.1 mph   48 % 0.0 in 670.0 W/m2 CLR
14:53 21.7 °F 9.8 °F 1021.2 in WSW 12.9 mph 12.9 mph 47 % 0.0 in 670.0 W/m2 CLR
14:58 22.2 °F 10.4 °F 1021.2 in West 5.6 mph   47 % 0.0 in 628.0 W/m2 CLR
15:03 22.2 °F 10.7 °F 1021.2 in WSW 11.3 mph 11.3 mph 48 % 0.0 in 652.0 W/m2 CLR
15:08 22.2 °F 10.1 °F 1021.2 in West 9.3 mph   46 % 0.0 in 598.0 W/m2 CLR
15:13 22.2 °F 10.1 °F 1021.2 in Calm     46 % 0.0 in 628.0 W/m2 CLR
15:18 22.2 °F 10.4 °F 1020.9 in NW 5.6 mph 5.6 mph 47 % 0.0 in 336.0 W/m2 CLR
15:23 21.7 °F 9.8 °F 1020.9 in NW 11.1 mph 11.1 mph 47 % 0.0 in 417.0 W/m2 CLR
15:28 21.7 °F 9.8 °F 1020.9 in WNW 9.7 mph 9.7 mph 47 % 0.0 in 714.0 W/m2 CLR
15:33 22.2 °F 10.1 °F 1020.9 in WNW 3.7 mph 3.7 mph 46 % 0.0 in 766.0 W/m2 CLR
15:38 22.2 °F 10.1 °F 1020.9 in West 7.4 mph 7.4 mph 46 % 0.0 in 691.0 W/m2 CLR
15:43 22.8 °F 10.6 °F 1020.9 in West 16.7 mph 16.7 mph 46 % 0.0 in 640.0 W/m2 CLR
15:48 22.8 °F 10.6 °F 1020.9 in WSW 5.6 mph 5.6 mph 46 % 0.0 in 422.0 W/m2 CLR
15:53 22.2 °F 10.1 °F 1020.9 in WNW 14.8 mph 14.8 mph 46 % 0.0 in 503.0 W/m2 CLR
15:58 22.2 °F 10.1 °F 1020.9 in SW 11.1 mph 11.1 mph 46 % 0.0 in 573.0 W/m2 CLR
16:03 22.8 °F 10.6 °F 1020.9 in WSW 14.8 mph 14.8 mph 46 % 0.0 in 489.0 W/m2 CLR
16:08 22.2 °F 10.1 °F 1020.9 in WNW 3.7 mph 3.7 mph 46 % 0.0 in 494.0 W/m2 CLR
16:13 21.7 °F 9.8 °F 1020.9 in NNW 4.8 mph 4.8 mph 47 % 0.0 in 476.0 W/m2 CLR
16:18 22.2 °F 10.1 °F 1020.9 in NW 13.0 mph 13.0 mph 46 % 0.0 in 452.0 W/m2 CLR
16:23 22.8 °F 10.6 °F 1020.9 in NW 11.1 mph 11.1 mph 46 % 0.0 in 431.0 W/m2 CLR
16:28 22.8 °F 10.6 °F 1020.9 in West 5.6 mph 5.6 mph 46 % 0.0 in 418.0 W/m2 CLR
16:33 22.2 °F 9.7 °F 1020.9 in West 11.1 mph 11.1 mph 45 % 0.0 in 404.0 W/m2 CLR
16:38 22.2 °F 10.1 °F 1020.9 in WSW 5.6 mph 5.6 mph 46 % 0.0 in 392.0 W/m2 CLR
16:43 22.2 °F 9.7 °F 1020.9 in WSW 11.1 mph 11.1 mph 45 % 0.0 in 378.0 W/m2 CLR
16:48 22.2 °F 9.7 °F 1020.9 in Calm     45 % 0.0 in 367.0 W/m2 CLR
16:53 22.2 °F 9.7 °F 1020.9 in Calm     45 % 0.0 in 353.0 W/m2 CLR
16:58 22.2 °F 10.1 °F 1020.9 in Calm     46 % 0.0 in 341.0 W/m2 CLR
17:03 22.2 °F 9.7 °F 1020.9 in WNW 14.8 mph 14.8 mph 45 % 0.0 in 327.0 W/m2 CLR
17:08 22.2 °F 10.1 °F 1020.5 in NW 4.8 mph 4.8 mph 46 % 0.0 in 316.0 W/m2 CLR
17:13 21.7 °F 9.6 °F 1020.5 in NW 4.8 mph 4.8 mph 46 % 0.0 in 301.0 W/m2 CLR
17:18 21.7 °F 9.6 °F 1020.9 in North 6.4 mph 6.4 mph 46 % 0.0 in 287.0 W/m2 CLR
17:23 21.7 °F 9.6 °F 1020.9 in North 7.4 mph 7.4 mph 46 % 0.0 in 269.0 W/m2 CLR
17:28 21.7 °F 9.8 °F 1020.9 in North 6.4 mph 6.4 mph 47 % 0.0 in 255.0 W/m2 CLR
17:33 21.7 °F 10.2 °F 1020.9 in Calm     48 % 0.0 in 237.0 W/m2 CLR
17:38 21.7 °F 10.2 °F 1020.5 in Calm     48 % 0.0 in 223.0 W/m2 CLR
17:43 21.7 °F 10.2 °F 1020.5 in North 5.6 mph 5.6 mph 48 % 0.0 in 202.0 W/m2 CLR
17:48 21.7 °F 10.5 °F 1020.5 in Calm     49 % 0.0 in 185.0 W/m2 CLR
17:53 21.1 °F 10.0 °F 1020.5 in Calm     49 % 0.0 in 169.0 W/m2 CLR
18:03 21.1 °F 10.0 °F 1020.5 in Calm     49 % 0.0 in 132.0 W/m2 CLR
18:08 21.1 °F 10.0 °F 1020.9 in Calm     49 % 0.0 in 116.0 W/m2 CLR
18:13 20.6 °F 9.4 °F 1020.9 in Calm     49 % 0.0 in 102.0 W/m2 CLR
18:18 20.6 °F 9.8 °F 1020.9 in Calm     50 % 0.0 in 86.0 W/m2 CLR
18:23 20.6 °F 9.8 °F 1020.9 in Calm     50 % 0.0 in 69.0 W/m2 FEW
18:28 20.0 °F 9.6 °F 1020.9 in Calm     51 % 0.0 in 58.0 W/m2 SCT
18:33 19.4 °F 9.1 °F 1020.9 in Calm     51 % 0.0 in 46.0 W/m2 SCT
18:38 18.9 °F 8.5 °F 1020.9 in Calm     51 % 0.0 in 35.0 W/m2 BKN
18:43 18.9 °F 8.5 °F 1020.9 in Calm     51 % 0.0 in 23.0 W/m2 BKN
18:48 17.8 °F 7.5 °F 1020.9 in Calm     51 % 0.0 in 16.0 W/m2 BKN
18:53 17.8 °F 7.5 °F 1020.9 in Calm     51 % 0.0 in 12.0 W/m2 BKN
18:58 16.7 °F 6.8 °F 1021.2 in Calm     52 % 0.0 in 11.0 W/m2 BKN
19:03 16.1 °F 6.5 °F 1021.2 in Calm     53 % 0.0 in 9.0 W/m2 BKN
19:08 16.1 °F 6.5 °F 1021.2 in Calm     53 % 0.0 in 5.0 W/m2 BKN
19:13 15.6 °F 6.3 °F 1021.2 in Calm     54 % 0.0 in 0.0 W/m2 OVC
19:18 15.0 °F 6.0 °F 1021.2 in Calm     55 % 0.0 in 0.0 W/m2 OVC
19:24 15.0 °F 6.0 °F 1021.2 in Calm     55 % 0.0 in 0.0 W/m2 CLR
19:29 14.4 °F 5.8 °F 1021.6 in Calm     56 % 0.0 in 0.0 W/m2 CLR
19:34 14.4 °F 6.0 °F 1021.6 in Calm     57 % 0.0 in 0.0 W/m2 CLR
19:39 14.4 °F 6.0 °F 1021.6 in Calm     57 % 0.0 in 0.0 W/m2 CLR
19:44 13.9 °F 5.8 °F 1021.6 in Calm     58 % 0.0 in 0.0 W/m2 CLR
19:49 14.4 °F 6.5 °F 1021.6 in Calm     59 % 0.0 in 0.0 W/m2 CLR
19:54 14.4 °F 6.8 °F 1021.6 in Calm     60 % 0.0 in 0.0 W/m2 CLR
19:59 14.4 °F 7.2 °F 1021.6 in Calm     62 % 0.0 in 0.0 W/m2 CLR
20:04 14.4 °F 7.5 °F 1021.9 in Calm     63 % 0.0 in 0.0 W/m2 CLR
20:09 14.4 °F 7.7 °F 1021.9 in Calm     64 % 0.0 in 0.0 W/m2 CLR
20:14 14.4 °F 8.2 °F 1021.9 in Calm     66 % 0.0 in 0.0 W/m2 CLR
20:19 13.9 °F 7.8 °F 1021.9 in Calm     67 % 0.0 in 0.0 W/m2 CLR
20:24 13.9 °F 8.1 °F 1021.9 in Calm     68 % 0.0 in 0.0 W/m2 CLR
20:29 13.3 °F 7.8 °F 1021.9 in Calm     69 % 0.0 in 0.0 W/m2 CLR
20:34 13.3 °F 8.0 °F 1021.9 in Calm     70 % 0.0 in 0.0 W/m2 CLR
20:39 12.8 °F 7.4 °F 1021.9 in Calm     70 % 0.0 in 0.0 W/m2 CLR
20:44 12.8 °F 7.7 °F 1021.9 in Calm     71 % 0.0 in 0.0 W/m2 CLR
20:49 12.2 °F 7.1 °F 1021.9 in Calm     71 % 0.0 in 0.0 W/m2 CLR
20:54 12.2 °F 7.3 °F 1022.2 in Calm     72 % 0.0 in 0.0 W/m2 CLR
20:59 12.2 °F 7.3 °F 1022.2 in Calm     72 % 0.0 in 0.0 W/m2 CLR
21:04 11.7 °F 7.0 °F 1022.2 in Calm     73 % 0.0 in 0.0 W/m2 CLR
21:09 11.7 °F 7.2 °F 1022.2 in Calm     74 % 0.0 in 0.0 W/m2 CLR
21:14 11.7 °F 7.2 °F 1022.2 in Calm     74 % 0.0 in 0.0 W/m2 CLR
21:19 11.1 °F 6.8 °F 1022.6 in Calm     75 % 0.0 in 0.0 W/m2 CLR
21:24 11.1 °F 6.8 °F 1022.2 in Calm     75 % 0.0 in 0.0 W/m2 CLR
21:29 11.1 °F 7.1 °F 1022.2 in Calm     76 % 0.0 in 0.0 W/m2 CLR
21:34 11.1 °F 7.1 °F 1022.6 in Calm     76 % 0.0 in 0.0 W/m2 CLR
21:39 10.6 °F 6.7 °F 1022.6 in Calm     77 % 0.0 in 0.0 W/m2 CLR
21:44 10.6 °F 6.7 °F 1022.6 in Calm     77 % 0.0 in 0.0 W/m2 CLR
21:49 10.6 °F 6.9 °F 1022.6 in Calm     78 % 0.0 in 0.0 W/m2 CLR
21:54 10.6 °F 6.9 °F 1022.6 in Calm     78 % 0.0 in 0.0 W/m2 CLR
21:59 10.6 °F 6.9 °F 1022.6 in Calm     78 % 0.0 in 0.0 W/m2 CLR
22:04 11.1 °F 7.6 °F 1022.6 in Calm     79 % 0.0 in 0.0 W/m2 CLR
22:09 11.1 °F 7.6 °F 1022.9 in Calm     79 % 0.0 in 0.0 W/m2 CLR
22:14 11.1 °F 7.6 °F 1022.9 in Calm     79 % 0.0 in 0.0 W/m2 CLR
22:19 11.7 °F 8.2 °F 1022.9 in Calm     79 % 0.0 in 0.0 W/m2 CLR
22:24 11.7 °F 8.3 °F 1022.9 in Calm     80 % 0.0 in 0.0 W/m2 CLR
22:29 11.1 °F 7.8 °F 1022.9 in Calm     80 % 0.0 in 0.0 W/m2 CLR
22:34 11.1 °F 7.6 °F 1022.9 in Calm     79 % 0.0 in 0.0 W/m2 CLR
22:39 11.1 °F 7.8 °F 1022.9 in Calm     80 % 0.0 in 0.0 W/m2 CLR
22:44 11.1 °F 7.8 °F 1023.2 in Calm     80 % 0.0 in 0.0 W/m2 CLR
22:49 10.6 °F 7.2 °F 1023.2 in Calm     80 % 0.0 in 0.0 W/m2 CLR
22:54 10.6 °F 7.4 °F 1023.2 in Calm     81 % 0.0 in 0.0 W/m2 CLR
22:59 10.6 °F 7.4 °F 1023.2 in Calm     81 % 0.0 in 0.0 W/m2 CLR
23:04 10.6 °F 7.4 °F 1023.2 in Calm     81 % 0.0 in 0.0 W/m2 CLR
23:09 10.6 °F 7.6 °F 1023.2 in Calm     82 % 0.0 in 0.0 W/m2 CLR
23:14 10.6 °F 7.6 °F 1023.2 in Calm     82 % 0.0 in 0.0 W/m2 CLR
23:19 10.6 °F 7.4 °F 1023.2 in Calm     81 % 0.0 in 0.0 W/m2 CLR
23:24 10.6 °F 7.4 °F 1023.2 in Calm     81 % 0.0 in 0.0 W/m2 CLR
23:25 10.6 °F 7.4 °F 1023.2 in Calm     81 % 0.0 in 0.0 W/m2 CLR
23:30 11.1 °F 7.9 °F 1023.2 in Calm     81 % 0.0 in 0.0 W/m2 CLR
23:35 11.1 °F 7.9 °F 1023.2 in Calm     81 % 0.0 in 0.0 W/m2 CLR
23:40 11.1 °F 7.9 °F 1023.2 in Calm     81 % 0.0 in 0.0 W/m2 CLR
23:45 11.1 °F 7.9 °F 1023.2 in Calm     81 % 0.0 in 0.0 W/m2 CLR
23:50 11.1 °F 7.9 °F 1023.2 in Calm     81 % 0.0 in 0.0 W/m2 CLR
23:55 11.1 °F 7.9 °F 1023.2 in Calm     81 % 0.0 in 0.0 W/m2 CLR
Lo Temps de Massalio
Compliments of Weather Underground - 1.25 mb